createdAt,value
2023-05-19T00:00:09.045Z,73.61
2023-05-19T00:01:09.089Z,73.71
2023-05-19T00:02:09.089Z,73.10
2023-05-19T00:03:09.338Z,73.91
2023-05-19T00:04:09.007Z,73.10
2023-05-19T00:05:09.021Z,74.67
2023-05-19T00:06:09.070Z,73.91
2023-05-19T00:07:08.997Z,73.50
2023-05-19T00:08:08.978Z,74.32
2023-05-19T00:09:09.020Z,74.67
2023-05-19T00:10:08.979Z,74.46
2023-05-19T00:11:09.002Z,74.74
2023-05-19T00:12:08.991Z,74.74
2023-05-19T00:13:08.980Z,74.43
2023-05-19T00:14:08.983Z,75.29
2023-05-19T00:15:08.966Z,75.18
2023-05-19T00:16:09.000Z,75.38
2023-05-19T00:17:08.956Z,75.18
2023-05-19T00:18:09.021Z,74.63
2023-05-19T00:19:08.965Z,74.87
2023-05-19T00:20:08.937Z,74.98
2023-05-19T00:21:08.944Z,74.87
2023-05-19T00:22:08.897Z,75.29
2023-05-19T00:23:08.936Z,75.29
2023-05-19T00:24:08.882Z,75.38
2023-05-19T00:25:08.958Z,75.90
2023-05-19T00:26:08.885Z,76.31
2023-05-19T00:27:08.883Z,75.70
2023-05-19T00:28:08.879Z,75.42
2023-05-19T00:29:08.890Z,76.04
2023-05-19T00:30:08.851Z,75.42
2023-05-19T00:31:08.884Z,75.52
2023-05-19T00:32:08.977Z,75.52
2023-05-19T00:33:08.907Z,76.14
2023-05-19T00:34:08.843Z,76.25
2023-05-19T00:35:08.853Z,76.25
2023-05-19T00:36:08.825Z,75.93
2023-05-19T00:37:08.837Z,75.93
2023-05-19T00:38:08.799Z,76.25
2023-05-19T00:39:08.849Z,75.52
2023-05-19T00:40:08.803Z,75.63
2023-05-19T00:41:08.800Z,75.63
2023-05-19T00:42:08.790Z,76.04
2023-05-19T00:43:08.794Z,76.04
2023-05-19T00:44:08.772Z,76.38
2023-05-19T00:45:08.820Z,76.45
2023-05-19T00:46:08.813Z,76.76
2023-05-19T00:47:08.843Z,77.20
2023-05-19T00:48:08.808Z,77.31
2023-05-19T00:49:08.779Z,77.51
2023-05-19T00:50:08.744Z,76.90
2023-05-19T00:51:08.743Z,77.41
2023-05-19T00:52:08.749Z,77.72
2023-05-19T00:53:08.728Z,77.82
2023-05-19T00:54:08.749Z,77.82
2023-05-19T00:55:08.730Z,77.92
2023-05-19T00:56:08.720Z,77.62
2023-05-19T00:57:08.710Z,77.92
2023-05-19T00:58:08.684Z,77.41
2023-05-19T00:59:08.716Z,77.62
2023-05-19T01:00:08.676Z,77.72
2023-05-19T01:01:08.730Z,78.13
2023-05-19T01:02:08.705Z,78.27
2023-05-19T01:03:08.715Z,77.92
2023-05-19T01:04:08.780Z,78.27
2023-05-19T01:05:08.676Z,78.30
2023-05-19T01:06:08.646Z,78.06
2023-05-19T01:07:08.682Z,78.51
2023-05-19T01:08:08.651Z,78.06
2023-05-19T01:09:08.651Z,77.92
2023-05-19T01:10:08.625Z,78.03
2023-05-19T01:11:08.625Z,78.17
2023-05-19T01:12:08.672Z,78.17
2023-05-19T01:13:08.655Z,78.13
2023-05-19T01:14:08.614Z,78.10
2023-05-19T01:15:08.609Z,78.51
2023-05-19T01:16:08.601Z,78.30
2023-05-19T01:17:08.623Z,79.23
2023-05-19T01:18:08.614Z,79.75
2023-05-19T01:19:08.638Z,78.51
2023-05-19T01:20:08.559Z,79.23
2023-05-19T01:21:08.564Z,78.72
2023-05-19T01:22:08.545Z,78.61
2023-05-19T01:23:08.580Z,78.72
2023-05-19T01:24:08.536Z,78.61
2023-05-19T01:25:08.549Z,78.61
2023-05-19T01:26:08.535Z,78.82
2023-05-19T01:27:08.574Z,79.23
2023-05-19T01:28:08.502Z,79.23
2023-05-19T01:29:08.551Z,78.61
2023-05-19T01:30:08.519Z,78.61
2023-05-19T01:31:08.508Z,78.47
2023-05-19T01:32:08.683Z,79.13
2023-05-19T01:33:08.578Z,78.30
2023-05-19T01:34:08.514Z,79.13
2023-05-19T01:35:08.555Z,79.03
2023-05-19T01:36:08.455Z,79.23
2023-05-19T01:37:08.472Z,78.30
2023-05-19T01:38:08.476Z,77.89
2023-05-19T01:39:08.474Z,79.03
2023-05-19T01:40:08.500Z,78.51
2023-05-19T01:41:08.485Z,78.30
2023-05-19T01:42:08.457Z,78.51
2023-05-19T01:43:08.447Z,79.44
2023-05-19T01:44:08.425Z,79.03
2023-05-19T01:45:08.439Z,79.33
2023-05-19T01:46:08.457Z,79.64
2023-05-19T01:47:08.462Z,79.79
2023-05-19T01:48:10.789Z,79.79
2023-05-19T01:49:08.414Z,79.27
2023-05-19T01:50:08.396Z,79.64
2023-05-19T01:51:08.398Z,79.37
2023-05-19T01:52:08.402Z,80.19
2023-05-19T01:53:08.427Z,80.61
2023-05-19T01:54:08.403Z,80.09
2023-05-19T01:55:08.405Z,79.68
2023-05-19T01:56:08.376Z,80.02
2023-05-19T01:57:08.392Z,80.30
2023-05-19T01:58:08.351Z,81.12
2023-05-19T01:59:08.372Z,80.40
2023-05-19T02:00:08.374Z,81.63
2023-05-19T02:01:08.421Z,81.33
2023-05-19T02:02:08.350Z,81.77
2023-05-19T02:03:08.398Z,82.60
2023-05-19T02:04:08.355Z,82.23
2023-05-19T02:05:08.360Z,83.26
2023-05-19T02:06:08.309Z,82.74
2023-05-19T02:07:08.353Z,82.95
2023-05-19T02:08:08.294Z,83.77
2023-05-19T02:09:08.317Z,83.98
2023-05-19T02:10:08.290Z,84.01
2023-05-19T02:11:08.291Z,84.29
2023-05-19T02:12:08.285Z,84.12
2023-05-19T02:13:08.312Z,84.29
2023-05-19T02:14:08.307Z,84.74
2023-05-19T02:15:08.340Z,85.15
2023-05-19T02:16:08.319Z,84.33
2023-05-19T02:17:08.266Z,84.43
2023-05-19T02:18:08.231Z,83.81
2023-05-19T02:19:08.342Z,84.84
2023-05-19T02:20:08.267Z,84.84
2023-05-19T02:21:08.236Z,85.60
2023-05-19T02:22:08.219Z,85.81
2023-05-19T02:23:08.228Z,85.81
2023-05-19T02:24:08.211Z,85.60
2023-05-19T02:25:08.273Z,85.81
2023-05-19T02:26:08.207Z,86.02
2023-05-19T02:27:08.200Z,85.95
2023-05-19T02:28:08.187Z,85.39
2023-05-19T02:29:08.188Z,85.71
2023-05-19T02:30:08.171Z,85.39
2023-05-19T02:31:08.228Z,85.81
2023-05-19T02:32:08.273Z,85.71
2023-05-19T02:33:08.210Z,85.19
2023-05-19T02:34:08.150Z,85.50
2023-05-19T02:35:08.198Z,85.81
2023-05-19T02:36:08.147Z,85.50
2023-05-19T02:37:08.155Z,84.94
2023-05-19T02:38:08.144Z,85.19
2023-05-19T02:39:08.131Z,85.30
2023-05-19T02:40:08.169Z,85.50
2023-05-19T02:41:08.136Z,85.30
2023-05-19T02:42:08.105Z,85.39
2023-05-19T02:43:08.156Z,85.50
2023-05-19T02:44:08.081Z,85.81
2023-05-19T02:45:08.102Z,86.68
2023-05-19T02:46:08.104Z,87.19
2023-05-19T02:47:08.088Z,87.65
2023-05-19T02:48:08.123Z,87.54
2023-05-19T02:49:08.123Z,88.10
2023-05-19T02:50:08.066Z,89.03
2023-05-19T02:51:08.098Z,88.98
2023-05-19T02:52:08.063Z,88.82
2023-05-19T02:53:08.068Z,88.71
2023-05-19T02:54:08.063Z,89.17
2023-05-19T02:55:08.050Z,88.96
2023-05-19T02:56:08.025Z,89.79
2023-05-19T02:57:08.047Z,90.93
2023-05-19T02:58:08.032Z,90.97
2023-05-19T02:59:08.032Z,90.97
2023-05-19T03:00:08.001Z,91.17
2023-05-19T03:01:08.009Z,91.49
2023-05-19T03:02:08.060Z,91.59
2023-05-19T03:03:08.130Z,91.59
2023-05-19T03:04:08.059Z,91.59
2023-05-19T03:05:08.039Z,91.90
2023-05-19T03:06:07.986Z,92.00
2023-05-19T03:07:08.033Z,91.69
2023-05-19T03:08:07.975Z,92.32
2023-05-19T03:09:07.973Z,92.36
2023-05-19T03:10:08.019Z,92.11
2023-05-19T03:11:07.960Z,93.08
2023-05-19T03:12:08.050Z,92.77
2023-05-19T03:13:07.972Z,92.77
2023-05-19T03:14:07.946Z,93.33
2023-05-19T03:15:07.952Z,93.18
2023-05-19T03:16:07.997Z,93.54
2023-05-19T03:17:08.132Z,93.54
2023-05-19T03:18:07.960Z,93.95
2023-05-19T03:19:08.056Z,93.95
2023-05-19T03:20:07.893Z,93.54
2023-05-19T03:21:07.934Z,93.33
2023-05-19T03:22:07.886Z,93.74
2023-05-19T03:23:07.899Z,94.26
2023-05-19T03:24:07.897Z,94.37
2023-05-19T03:25:07.906Z,94.78
2023-05-19T03:26:07.882Z,94.57
2023-05-19T03:27:07.896Z,94.89
2023-05-19T03:28:07.846Z,94.72
2023-05-19T03:29:07.894Z,94.72
2023-05-19T03:30:07.837Z,95.14
2023-05-19T03:31:07.895Z,94.93
2023-05-19T03:32:07.857Z,94.98
2023-05-19T03:33:07.966Z,93.74
2023-05-19T03:34:07.852Z,93.60
2023-05-19T03:35:07.848Z,93.49
2023-05-19T03:36:07.817Z,93.29
2023-05-19T03:37:07.878Z,92.57
2023-05-19T03:38:07.836Z,91.53
2023-05-19T03:39:07.826Z,92.67
2023-05-19T03:40:07.799Z,92.97
2023-05-19T03:41:07.793Z,92.46
2023-05-19T03:42:07.773Z,92.36
2023-05-19T03:43:07.820Z,92.15
2023-05-19T03:44:07.768Z,91.84
2023-05-19T03:45:07.780Z,92.15
2023-05-19T03:46:07.865Z,91.63
2023-05-19T03:47:07.802Z,91.53
2023-05-19T03:48:07.784Z,92.21
2023-05-19T03:49:07.813Z,92.25
2023-05-19T03:50:07.739Z,91.94
2023-05-19T03:51:07.763Z,92.36
2023-05-19T03:52:07.732Z,92.87
2023-05-19T03:53:07.734Z,93.08
2023-05-19T03:54:07.753Z,92.67
2023-05-19T03:55:07.754Z,92.15
2023-05-19T03:56:07.724Z,92.77
2023-05-19T03:57:07.741Z,92.97
2023-05-19T03:58:07.719Z,93.29
2023-05-19T03:59:07.714Z,93.74
2023-05-19T04:00:07.712Z,93.70
2023-05-19T04:01:07.712Z,93.64
2023-05-19T04:02:08.390Z,94.06
2023-05-19T04:03:07.760Z,93.85
2023-05-19T04:04:07.716Z,93.49
2023-05-19T04:05:07.689Z,94.16
2023-05-19T04:06:07.656Z,94.37
2023-05-19T04:07:07.655Z,94.78
2023-05-19T04:08:07.668Z,94.37
2023-05-19T04:09:07.645Z,94.37
2023-05-19T04:10:07.648Z,93.85
2023-05-19T04:11:07.634Z,93.85
2023-05-19T04:12:07.615Z,93.49
2023-05-19T04:13:07.635Z,93.70
2023-05-19T04:14:07.606Z,93.70
2023-05-19T04:15:07.683Z,93.18
2023-05-19T04:16:07.680Z,93.08
2023-05-19T04:17:07.617Z,92.87
2023-05-19T04:18:07.658Z,92.87
2023-05-19T04:19:07.681Z,92.87
2023-05-19T04:20:07.570Z,93.24
2023-05-19T04:21:07.599Z,93.08
2023-05-19T04:22:07.593Z,92.83
2023-05-19T04:23:07.602Z,92.46
2023-05-19T04:24:07.580Z,92.42
2023-05-19T04:25:07.574Z,92.63
2023-05-19T04:26:07.538Z,91.80
2023-05-19T04:27:07.568Z,90.77
2023-05-19T04:28:07.549Z,90.31
2023-05-19T04:29:07.534Z,90.25
2023-05-19T04:30:07.526Z,89.38
2023-05-19T04:31:07.550Z,89.69
2023-05-19T04:32:07.506Z,89.28
2023-05-19T04:33:07.616Z,88.92
2023-05-19T04:34:07.498Z,87.95
2023-05-19T04:35:07.496Z,87.08
2023-05-19T04:36:07.486Z,86.02
2023-05-19T04:37:07.504Z,85.91
2023-05-19T04:38:07.474Z,85.81
2023-05-19T04:39:08.062Z,84.29
2023-05-19T04:40:07.466Z,83.42
2023-05-19T04:41:07.480Z,81.60
2023-05-19T04:42:07.450Z,79.57
2023-05-19T04:43:07.461Z,79.67
2023-05-19T04:44:07.445Z,79.43
2023-05-19T04:45:07.476Z,78.23
2023-05-19T04:46:07.446Z,76.62
2023-05-19T04:47:07.542Z,74.90
2023-05-19T04:48:07.434Z,73.54
2023-05-19T04:49:07.432Z,72.99
2023-05-19T04:50:07.440Z,72.58
2023-05-19T04:51:07.461Z,71.80
2023-05-19T04:52:07.415Z,72.11
2023-05-19T04:53:07.437Z,71.29
2023-05-19T04:54:07.391Z,71.29
2023-05-19T04:55:07.411Z,71.70
2023-05-19T04:56:07.385Z,72.11
2023-05-19T04:57:07.415Z,70.26
2023-05-19T04:58:07.396Z,70.95
2023-05-19T04:59:07.381Z,70.16
2023-05-19T05:00:07.355Z,69.31
2023-05-19T05:01:07.377Z,69.75
2023-05-19T05:02:07.387Z,71.22
2023-05-19T05:03:07.452Z,71.97
2023-05-19T05:04:07.381Z,68.43
2023-05-19T05:05:07.334Z,66.91
2023-05-19T05:06:07.326Z,67.18
2023-05-19T05:07:07.333Z,67.32
2023-05-19T05:08:07.296Z,64.50
2023-05-19T05:09:07.348Z,66.13
2023-05-19T05:10:07.310Z,64.47
2023-05-19T05:11:07.393Z,63.22
2023-05-19T05:12:07.271Z,61.82
2023-05-19T05:13:07.290Z,65.89
2023-05-19T05:14:07.276Z,63.44
2023-05-19T05:15:07.272Z,66.16
2023-05-19T05:16:07.398Z,65.62
2023-05-19T05:17:07.267Z,62.10
2023-05-19T05:18:07.270Z,63.19
2023-05-19T05:19:07.346Z,61.81
2023-05-19T05:20:07.268Z,60.76
2023-05-19T05:21:07.226Z,62.40
2023-05-19T05:22:07.221Z,59.59
2023-05-19T05:23:07.209Z,61.34
2023-05-19T05:24:07.210Z,62.13
2023-05-19T05:25:07.212Z,58.92
2023-05-19T05:26:07.193Z,59.46
2023-05-19T05:27:07.193Z,58.31
2023-05-19T05:28:07.184Z,58.18
2023-05-19T05:29:07.183Z,57.65
2023-05-19T05:30:07.149Z,57.04
2023-05-19T05:31:07.181Z,59.00
2023-05-19T05:32:07.131Z,56.66
2023-05-19T05:33:07.215Z,56.05
2023-05-19T05:34:07.139Z,57.04
2023-05-19T05:35:07.126Z,58.80
2023-05-19T05:36:07.118Z,60.64
2023-05-19T05:37:07.127Z,62.45
2023-05-19T05:38:07.114Z,59.98
2023-05-19T05:39:07.109Z,61.30
2023-05-19T05:40:07.098Z,60.28
2023-05-19T05:41:07.101Z,61.97
2023-05-19T05:42:07.060Z,61.83
2023-05-19T05:43:07.074Z,61.74
2023-05-19T05:44:07.037Z,61.02
2023-05-19T05:45:07.051Z,60.66
2023-05-19T05:46:07.065Z,60.71
2023-05-19T05:47:07.046Z,61.57
2023-05-19T05:48:07.077Z,62.68
2023-05-19T05:49:07.030Z,64.28
2023-05-19T05:50:06.985Z,63.10
2023-05-19T05:51:06.995Z,62.11
2023-05-19T05:52:07.124Z,61.08
2023-05-19T05:53:07.000Z,63.97
2023-05-19T05:54:06.981Z,60.66
2023-05-19T05:55:06.986Z,63.02
2023-05-19T05:56:06.980Z,64.32
2023-05-19T05:57:06.960Z,62.13
2023-05-19T05:58:06.947Z,61.08
2023-05-19T05:59:06.916Z,62.20
2023-05-19T06:00:06.893Z,58.34
2023-05-19T06:01:06.942Z,61.08
2023-05-19T06:02:06.926Z,58.69
2023-05-19T06:03:06.931Z,57.40
2023-05-19T06:04:06.913Z,56.90
2023-05-19T06:05:06.883Z,58.50
2023-05-19T06:06:06.854Z,58.50
2023-05-19T06:07:06.883Z,60.40
2023-05-19T06:08:06.845Z,60.05
2023-05-19T06:09:06.846Z,61.65
2023-05-19T06:10:06.851Z,59.36
2023-05-19T06:11:06.823Z,60.08
2023-05-19T06:12:06.860Z,58.13
2023-05-19T06:13:06.822Z,56.29
2023-05-19T06:14:06.803Z,57.05
2023-05-19T06:15:06.928Z,59.98
2023-05-19T06:16:06.798Z,58.42
2023-05-19T06:17:06.789Z,59.37
2023-05-19T06:18:06.825Z,59.83
2023-05-19T06:19:06.806Z,58.89
2023-05-19T06:20:06.768Z,58.33
2023-05-19T06:21:06.745Z,58.29
2023-05-19T06:22:06.712Z,58.92
2023-05-19T06:23:06.758Z,56.52
2023-05-19T06:24:06.748Z,57.13
2023-05-19T06:25:06.718Z,58.53
2023-05-19T06:26:06.730Z,58.12
2023-05-19T06:27:06.709Z,57.35
2023-05-19T06:28:06.682Z,56.82
2023-05-19T06:29:06.685Z,58.06
2023-05-19T06:30:06.673Z,55.88
2023-05-19T06:31:06.795Z,55.43
2023-05-19T06:32:06.658Z,55.76
2023-05-19T06:33:06.701Z,55.32
2023-05-19T06:34:06.636Z,55.17
2023-05-19T06:35:06.631Z,58.29
2023-05-19T06:36:06.622Z,56.54
2023-05-19T06:37:06.611Z,57.71
2023-05-19T06:38:06.594Z,57.37
2023-05-19T06:39:06.595Z,56.21
2023-05-19T06:40:06.586Z,53.98
2023-05-19T06:41:06.572Z,55.50
2023-05-19T06:42:06.550Z,55.30
2023-05-19T06:43:06.548Z,55.52
2023-05-19T06:44:06.540Z,56.95
2023-05-19T06:45:06.533Z,55.88
2023-05-19T06:46:06.545Z,54.91
2023-05-19T06:47:06.677Z,53.98
2023-05-19T06:48:06.597Z,54.56
2023-05-19T06:49:06.520Z,52.49
2023-05-19T06:50:06.517Z,53.34
2023-05-19T06:51:06.489Z,51.68
2023-05-19T06:52:06.498Z,54.53
2023-05-19T06:53:06.465Z,54.46
2023-05-19T06:54:06.441Z,54.31
2023-05-19T06:55:06.474Z,53.70
2023-05-19T06:56:06.435Z,53.22
2023-05-19T06:57:06.433Z,54.28
2023-05-19T06:58:06.437Z,52.01
2023-05-19T06:59:06.412Z,51.03
2023-05-19T07:00:06.409Z,49.39
2023-05-19T07:01:06.409Z,48.94
2023-05-19T07:02:06.454Z,48.74
2023-05-19T07:03:06.507Z,48.21
2023-05-19T07:04:06.453Z,48.96
2023-05-19T07:05:06.380Z,48.66
2023-05-19T07:06:08.062Z,48.49
2023-05-19T07:07:06.358Z,52.48
2023-05-19T07:08:06.328Z,53.93
2023-05-19T07:09:06.381Z,54.23
2023-05-19T07:10:06.322Z,54.86
2023-05-19T07:11:06.345Z,54.00
2023-05-19T07:12:06.295Z,51.81
2023-05-19T07:13:06.321Z,54.36
2023-05-19T07:14:06.279Z,54.36
2023-05-19T07:15:06.290Z,53.12
2023-05-19T07:16:06.285Z,51.61
2023-05-19T07:17:06.295Z,49.24
2023-05-19T07:18:06.273Z,49.58
2023-05-19T07:19:06.303Z,51.68
2023-05-19T07:20:06.241Z,53.05
2023-05-19T07:21:06.308Z,49.30
2023-05-19T07:22:06.232Z,52.11
2023-05-19T07:23:06.230Z,50.24
2023-05-19T07:24:06.200Z,49.16
2023-05-19T07:25:06.212Z,48.08
2023-05-19T07:26:06.190Z,49.79
2023-05-19T07:27:06.249Z,52.09
2023-05-19T07:28:06.196Z,50.98
2023-05-19T07:29:06.188Z,49.79
2023-05-19T07:30:06.167Z,50.29
2023-05-19T07:31:06.169Z,49.99
2023-05-19T07:32:06.195Z,48.58
2023-05-19T07:33:06.273Z,48.36
2023-05-19T07:34:06.149Z,49.79
2023-05-19T07:35:06.130Z,49.84
2023-05-19T07:36:06.102Z,50.52
2023-05-19T07:37:06.114Z,49.72
2023-05-19T07:38:06.104Z,49.09
2023-05-19T07:39:06.208Z,51.33
2023-05-19T07:40:06.112Z,49.30
2023-05-19T07:41:06.110Z,49.58
2023-05-19T07:42:06.066Z,49.38
2023-05-19T07:43:06.108Z,50.57
2023-05-19T07:44:06.052Z,48.98
2023-05-19T07:45:06.064Z,51.40
2023-05-19T07:46:06.180Z,52.87
2023-05-19T07:47:06.065Z,51.38
2023-05-19T07:48:06.090Z,49.26
2023-05-19T07:49:06.058Z,49.54
2023-05-19T07:50:06.010Z,48.28
2023-05-19T07:51:06.023Z,48.56
2023-05-19T07:52:06.013Z,49.16
2023-05-19T07:53:06.047Z,48.58
2023-05-19T07:54:06.075Z,48.54
2023-05-19T07:55:06.055Z,46.68
2023-05-19T07:56:06.007Z,46.78
2023-05-19T07:57:06.079Z,46.98
2023-05-19T07:58:06.046Z,48.16
2023-05-19T07:59:06.022Z,48.26
2023-05-19T08:00:06.042Z,49.22
2023-05-19T08:01:06.041Z,47.19
2023-05-19T08:02:06.038Z,46.58
2023-05-19T08:03:06.076Z,49.70
2023-05-19T08:04:06.090Z,47.94
2023-05-19T08:05:05.922Z,48.86
2023-05-19T08:06:05.905Z,48.41
2023-05-19T08:07:06.069Z,47.32
2023-05-19T08:08:05.886Z,49.96
2023-05-19T08:09:05.932Z,49.26
2023-05-19T08:10:05.871Z,48.13
2023-05-19T08:11:05.875Z,49.62
2023-05-19T08:12:05.848Z,49.01
2023-05-19T08:13:05.888Z,48.44
2023-05-19T08:14:05.842Z,47.03
2023-05-19T08:15:05.873Z,49.27
2023-05-19T08:16:05.911Z,47.66
2023-05-19T08:17:05.839Z,49.67
2023-05-19T08:18:05.855Z,49.37
2023-05-19T08:19:05.817Z,48.82
2023-05-19T08:20:05.812Z,49.29
2023-05-19T08:21:05.810Z,49.59
2023-05-19T08:22:05.781Z,48.52
2023-05-19T08:23:05.792Z,48.59
2023-05-19T08:24:05.799Z,49.37
2023-05-19T08:25:05.788Z,45.23
2023-05-19T08:26:05.798Z,45.31
2023-05-19T08:27:05.766Z,45.06
2023-05-19T08:28:05.763Z,44.73
2023-05-19T08:29:05.757Z,46.72
2023-05-19T08:30:05.764Z,44.60
2023-05-19T08:31:05.741Z,44.93
2023-05-19T08:32:05.751Z,45.81
2023-05-19T08:33:05.768Z,45.41
2023-05-19T08:34:05.712Z,46.75
2023-05-19T08:35:05.785Z,47.43
2023-05-19T08:36:05.680Z,48.29
2023-05-19T08:37:05.709Z,46.73
2023-05-19T08:38:05.670Z,46.28
2023-05-19T08:39:05.673Z,47.03
2023-05-19T08:40:05.704Z,45.19
2023-05-19T08:41:05.661Z,48.54
2023-05-19T08:42:05.634Z,48.87
2023-05-19T08:43:05.671Z,44.32
2023-05-19T08:44:05.626Z,43.54
2023-05-19T08:45:05.661Z,45.42
2023-05-19T08:46:05.599Z,46.22
2023-05-19T08:47:05.664Z,48.38
2023-05-19T08:48:05.726Z,48.89
2023-05-19T08:49:05.609Z,48.49
2023-05-19T08:50:05.628Z,46.92
2023-05-19T08:51:05.622Z,43.90
2023-05-19T08:52:05.586Z,46.44
2023-05-19T08:53:05.593Z,45.33
2023-05-19T08:54:05.574Z,44.45
2023-05-19T08:55:05.652Z,45.25
2023-05-19T08:56:05.602Z,46.28
2023-05-19T08:57:05.558Z,45.37
2023-05-19T08:58:05.524Z,48.14
2023-05-19T08:59:05.525Z,48.00
2023-05-19T09:00:05.526Z,46.89
2023-05-19T09:01:05.526Z,44.14
2023-05-19T09:02:05.958Z,42.83
2023-05-19T09:04:05.618Z,45.01
2023-05-19T09:05:05.657Z,44.53
2023-05-19T09:06:05.545Z,47.46
2023-05-19T09:07:05.479Z,44.10
2023-05-19T09:08:05.451Z,44.91
2023-05-19T09:09:05.500Z,47.97
2023-05-19T09:10:05.435Z,44.59
2023-05-19T09:11:05.448Z,45.37
2023-05-19T09:12:05.432Z,44.82
2023-05-19T09:13:05.464Z,44.48
2023-05-19T09:14:05.426Z,44.36
2023-05-19T09:15:05.451Z,43.14
2023-05-19T09:16:05.524Z,45.65
2023-05-19T09:17:05.726Z,44.87
2023-05-19T09:18:05.450Z,43.06
2023-05-19T09:19:05.470Z,45.24
2023-05-19T09:20:05.376Z,45.21
2023-05-19T09:21:05.384Z,46.26
2023-05-19T09:22:05.383Z,46.30
2023-05-19T09:23:05.377Z,46.04
2023-05-19T09:24:05.388Z,48.30
2023-05-19T09:25:05.378Z,49.39
2023-05-19T09:26:05.371Z,46.85
2023-05-19T09:27:05.386Z,48.46
2023-05-19T09:28:05.328Z,47.55
2023-05-19T09:29:05.319Z,48.46
2023-05-19T09:30:05.313Z,46.91
2023-05-19T09:31:05.321Z,44.69
2023-05-19T09:32:05.371Z,47.39
2023-05-19T09:33:05.381Z,47.06
2023-05-19T09:34:05.347Z,46.78
2023-05-19T09:35:05.347Z,47.35
2023-05-19T09:36:05.263Z,48.21
2023-05-19T09:37:05.267Z,48.96
2023-05-19T09:38:05.263Z,47.27
2023-05-19T09:39:05.310Z,49.27
2023-05-19T09:40:05.266Z,47.07
2023-05-19T09:41:05.254Z,47.75
2023-05-19T09:42:05.212Z,47.45
2023-05-19T09:43:05.248Z,47.31
2023-05-19T09:44:05.223Z,47.86
2023-05-19T09:45:05.206Z,46.12
2023-05-19T09:46:05.207Z,49.10
2023-05-19T09:47:05.224Z,45.51
2023-05-19T09:48:05.365Z,45.39
2023-05-19T09:49:05.202Z,44.71
2023-05-19T09:50:05.162Z,43.10
2023-05-19T09:51:05.205Z,45.54
2023-05-19T09:52:05.168Z,43.52
2023-05-19T09:53:05.179Z,46.11
2023-05-19T09:54:05.137Z,44.95
2023-05-19T09:55:05.181Z,44.14
2023-05-19T09:56:05.176Z,45.14
2023-05-19T09:57:06.004Z,45.04
2023-05-19T09:58:05.104Z,47.47
2023-05-19T09:59:05.124Z,46.75
2023-05-19T10:00:05.122Z,46.61
2023-05-19T10:01:05.465Z,41.43
2023-05-19T10:02:05.126Z,43.34
2023-05-19T10:03:05.149Z,44.92
2023-05-19T10:04:06.018Z,42.97
2023-05-19T10:05:05.124Z,43.80
2023-05-19T10:06:05.099Z,42.11
2023-05-19T10:07:05.054Z,41.17
2023-05-19T10:08:05.053Z,43.72
2023-05-19T10:09:05.046Z,42.19
2023-05-19T10:10:05.024Z,43.20
2023-05-19T10:11:05.034Z,45.39
2023-05-19T10:12:05.009Z,41.99
2023-05-19T10:13:05.041Z,43.22
2023-05-19T10:14:05.020Z,43.62
2023-05-19T10:15:05.011Z,47.66
2023-05-19T10:16:05.028Z,47.12
2023-05-19T10:17:05.101Z,44.73
2023-05-19T10:18:04.999Z,43.50
2023-05-19T10:19:05.076Z,43.48
2023-05-19T10:20:04.994Z,45.23
2023-05-19T10:21:04.950Z,44.95
2023-05-19T10:22:04.924Z,44.67
2023-05-19T10:23:04.986Z,46.08
2023-05-19T10:24:04.930Z,44.67
2023-05-19T10:25:04.962Z,45.29
2023-05-19T10:26:04.910Z,47.19
2023-05-19T10:27:04.907Z,44.95
2023-05-19T10:28:04.919Z,44.93
2023-05-19T10:29:04.918Z,47.24
2023-05-19T10:30:04.877Z,43.42
2023-05-19T10:31:04.884Z,44.18
2023-05-19T10:32:04.969Z,45.97
2023-05-19T10:33:04.896Z,47.17
2023-05-19T10:34:04.880Z,43.38
2023-05-19T10:35:04.851Z,43.22
2023-05-19T10:36:04.856Z,44.23
2023-05-19T10:37:04.841Z,45.03
2023-05-19T10:38:04.826Z,47.34
2023-05-19T10:39:04.841Z,46.55
2023-05-19T10:40:04.804Z,43.94
2023-05-19T10:41:04.814Z,45.31
2023-05-19T10:42:04.800Z,44.68
2023-05-19T10:43:04.796Z,45.47
2023-05-19T10:44:04.771Z,46.17
2023-05-19T10:45:04.817Z,42.88
2023-05-19T10:46:04.768Z,45.53
2023-05-19T10:47:04.796Z,46.87
2023-05-19T10:48:04.808Z,47.80
2023-05-19T10:49:04.762Z,48.43
2023-05-19T10:50:04.748Z,45.13
2023-05-19T10:51:04.740Z,45.27
2023-05-19T10:52:04.714Z,48.90
2023-05-19T10:53:04.741Z,47.89
2023-05-19T10:54:04.735Z,46.54
2023-05-19T10:55:04.708Z,45.53
2023-05-19T10:56:04.704Z,47.42
2023-05-19T10:57:04.711Z,46.89
2023-05-19T10:58:04.671Z,45.51
2023-05-19T10:59:04.679Z,49.07
2023-05-19T11:00:04.666Z,49.12
2023-05-19T11:01:04.684Z,49.88
2023-05-19T11:02:04.708Z,48.43
2023-05-19T11:03:04.721Z,45.89
2023-05-19T11:04:04.694Z,48.12
2023-05-19T11:05:04.643Z,49.43
2023-05-19T11:06:04.639Z,46.67
2023-05-19T11:07:04.609Z,48.20
2023-05-19T11:08:04.613Z,46.14
2023-05-19T11:09:04.608Z,48.79
2023-05-19T11:10:04.595Z,49.18
2023-05-19T11:11:04.593Z,48.77
2023-05-19T11:12:04.618Z,47.66
2023-05-19T11:13:06.361Z,46.03
2023-05-19T11:14:04.569Z,48.32
2023-05-19T11:15:04.566Z,48.90
2023-05-19T11:16:04.548Z,48.02
2023-05-19T11:17:04.667Z,44.73
2023-05-19T11:18:04.565Z,48.92
2023-05-19T11:19:04.551Z,47.19
2023-05-19T11:20:04.515Z,46.96
2023-05-19T11:21:04.610Z,48.07
2023-05-19T11:22:04.512Z,48.44
2023-05-19T11:23:04.578Z,48.22
2023-05-19T11:24:04.535Z,49.48
2023-05-19T11:25:04.549Z,48.00
2023-05-19T11:26:04.483Z,49.51
2023-05-19T11:27:04.508Z,45.10
2023-05-19T11:28:04.468Z,45.89
2023-05-19T11:29:04.501Z,48.12
2023-05-19T11:30:04.445Z,46.89
2023-05-19T11:31:04.467Z,48.55
2023-05-19T11:32:04.484Z,47.99
2023-05-19T11:33:04.475Z,48.26
2023-05-19T11:34:04.436Z,48.14
2023-05-19T11:35:04.468Z,50.48
2023-05-19T11:36:04.408Z,50.88
2023-05-19T11:37:04.417Z,50.48
2023-05-19T11:38:04.399Z,52.44
2023-05-19T11:39:04.425Z,49.82
2023-05-19T11:40:04.412Z,49.22
2023-05-19T11:41:04.398Z,49.82
2023-05-19T11:42:04.356Z,48.92
2023-05-19T11:43:04.370Z,49.77
2023-05-19T11:44:04.350Z,51.61
2023-05-19T11:45:04.353Z,49.50
2023-05-19T11:46:04.386Z,48.92
2023-05-19T11:47:04.376Z,48.96
2023-05-19T11:48:04.406Z,49.24
2023-05-19T11:49:04.324Z,52.14
2023-05-19T11:50:04.351Z,49.42
2023-05-19T11:51:04.336Z,47.86
2023-05-19T11:52:04.316Z,48.06
2023-05-19T11:53:04.314Z,49.07
2023-05-19T11:54:04.297Z,48.61
2023-05-19T11:55:04.290Z,49.09
2023-05-19T11:56:04.264Z,47.38
2023-05-19T11:57:04.300Z,48.76
2023-05-19T11:58:05.491Z,45.94
2023-05-19T11:59:04.261Z,47.15
2023-05-19T12:00:04.233Z,48.94
2023-05-19T12:01:04.282Z,48.61
2023-05-19T12:02:04.238Z,47.33
2023-05-19T12:03:04.370Z,44.89
2023-05-19T12:04:04.243Z,43.48
2023-05-19T12:05:04.263Z,43.44
2023-05-19T12:06:04.253Z,42.18
2023-05-19T12:07:04.230Z,44.95
2023-05-19T12:08:04.173Z,44.15
2023-05-19T12:09:04.186Z,45.37
2023-05-19T12:10:04.158Z,46.66
2023-05-19T12:11:04.182Z,44.93
2023-05-19T12:12:04.137Z,45.81
2023-05-19T12:13:04.148Z,46.49
2023-05-19T12:14:04.131Z,46.07
2023-05-19T12:15:04.181Z,44.91
2023-05-19T12:16:04.189Z,45.03
2023-05-19T12:17:04.140Z,47.28
2023-05-19T12:18:04.138Z,44.93
2023-05-19T12:19:04.138Z,45.25
2023-05-19T12:20:04.100Z,46.11
2023-05-19T12:21:04.095Z,44.71
2023-05-19T12:22:04.184Z,45.17
2023-05-19T12:23:04.251Z,47.35
2023-05-19T12:24:04.050Z,45.45
2023-05-19T12:25:04.088Z,47.43
2023-05-19T12:26:04.056Z,46.27
2023-05-19T12:27:04.053Z,47.60
2023-05-19T12:28:04.099Z,45.18
2023-05-19T12:29:04.064Z,45.09
2023-05-19T12:30:03.998Z,43.20
2023-05-19T12:31:04.013Z,44.76
2023-05-19T12:32:04.062Z,44.04
2023-05-19T12:33:04.102Z,45.41
2023-05-19T12:34:03.989Z,45.87
2023-05-19T12:35:03.973Z,43.98
2023-05-19T12:36:03.965Z,46.14
2023-05-19T12:37:03.978Z,47.86
2023-05-19T12:38:03.979Z,46.26
2023-05-19T12:39:04.113Z,48.80
2023-05-19T12:40:03.950Z,46.92
2023-05-19T12:41:03.954Z,45.77
2023-05-19T12:42:03.938Z,43.56
2023-05-19T12:43:03.981Z,44.26
2023-05-19T12:44:03.926Z,45.02
2023-05-19T12:45:03.932Z,44.99
2023-05-19T12:46:03.922Z,44.83
2023-05-19T12:47:03.904Z,45.13
2023-05-19T12:48:03.952Z,43.82
2023-05-19T12:49:03.928Z,43.62
2023-05-19T12:50:03.873Z,43.84
2023-05-19T12:51:03.888Z,47.44
2023-05-19T12:52:07.162Z,44.60
2023-05-19T12:53:04.888Z,45.69